createdAt,value
2023-05-01T00:07:35.308Z,17.30
2023-05-01T00:17:38.691Z,18.00
2023-05-01T00:27:40.646Z,17.58
2023-05-01T00:37:43.943Z,20.60
2023-05-01T00:47:46.275Z,24.08
2023-05-01T00:57:50.401Z,23.80
2023-05-01T01:08:04.781Z,18.40
2023-05-01T01:18:12.820Z,20.05
2023-05-01T01:28:27.855Z,16.92
2023-05-01T01:38:45.648Z,18.15
2023-05-01T01:48:50.364Z,18.73
2023-05-01T01:58:54.512Z,27.95
2023-05-01T02:08:58.463Z,26.67
2023-05-01T02:19:03.149Z,23.48
2023-05-01T02:29:05.102Z,25.98
2023-05-01T02:39:08.551Z,23.70
2023-05-01T02:49:11.776Z,22.85
2023-05-01T02:59:15.057Z,23.25
2023-05-01T03:09:16.966Z,22.33
2023-05-01T03:19:20.305Z,26.33
2023-05-01T03:29:22.284Z,24.55
2023-05-01T03:39:25.662Z,26.80
2023-05-01T03:49:27.602Z,21.52
2023-05-01T03:59:30.911Z,23.77
2023-05-01T04:09:32.860Z,23.90
2023-05-01T04:19:36.135Z,27.58
2023-05-01T04:29:38.030Z,26.75
2023-05-01T04:39:41.296Z,29.13
2023-05-01T04:49:43.210Z,21.60
2023-05-01T04:59:46.537Z,24.77
2023-05-01T05:09:48.612Z,29.38
2023-05-01T05:19:51.894Z,25.88
2023-05-01T05:29:53.929Z,18.45
2023-05-01T05:39:57.512Z,16.60
2023-05-01T05:49:59.632Z,16.27
2023-05-01T06:00:03.056Z,18.77
2023-05-01T06:10:05.671Z,13.90
2023-05-01T06:20:10.768Z,13.48
2023-05-01T06:30:13.101Z,10.95
2023-05-01T06:40:16.781Z,17.27
2023-05-01T06:50:18.690Z,7.53
2023-05-01T07:00:22.294Z,16.60
2023-05-01T07:10:24.311Z,13.63
2023-05-01T07:20:27.616Z,16.92
2023-05-01T07:30:29.578Z,15.02
2023-05-01T07:40:34.412Z,16.95
2023-05-01T07:50:36.405Z,22.00
2023-05-01T08:00:39.809Z,13.57
2023-05-01T08:10:41.705Z,11.88
2023-05-01T08:20:45.125Z,9.35
2023-05-01T08:30:47.157Z,10.82
2023-05-01T08:40:53.074Z,17.38
2023-05-01T08:50:56.631Z,16.63
2023-05-01T09:01:00.494Z,14.82
2023-05-01T09:11:03.907Z,12.10
2023-05-01T09:21:07.882Z,13.15
2023-05-01T09:31:21.438Z,13.77
2023-05-01T09:41:24.847Z,20.27
2023-05-01T09:51:28.060Z,10.68
2023-05-01T10:01:42.081Z,9.88
2023-05-01T10:11:51.197Z,13.18
2023-05-01T10:21:57.794Z,11.20
2023-05-01T10:32:01.430Z,12.43
2023-05-01T10:42:09.506Z,10.40
2023-05-01T10:52:11.557Z,5.75
2023-05-01T11:02:23.365Z,9.10
2023-05-01T11:12:50.717Z,6.20
2023-05-01T11:23:26.244Z,5.75
2023-05-01T11:33:28.423Z,3.90
2023-05-01T11:43:32.021Z,6.82
2023-05-01T12:04:50.848Z,5.53
2023-05-01T12:14:52.873Z,7.07
2023-05-01T12:24:56.448Z,3.42
2023-05-01T12:34:58.926Z,5.13
2023-05-01T12:45:02.752Z,3.63
2023-05-01T12:55:06.266Z,5.35
2023-05-01T13:05:11.246Z,6.07
2023-05-01T13:15:22.391Z,4.82
2023-05-01T13:25:25.884Z,6.50
2023-05-01T13:35:28.081Z,4.30
2023-05-01T13:45:31.436Z,4.07
2023-05-01T13:55:33.804Z,1.67
2023-05-01T14:05:39.773Z,3.40
2023-05-01T14:15:41.714Z,4.47
2023-05-01T14:25:48.309Z,2.80
2023-05-01T14:35:51.974Z,3.08
2023-05-01T14:45:55.545Z,3.40
2023-05-01T14:55:57.500Z,3.10
2023-05-01T15:06:01.159Z,4.18
2023-05-01T15:16:03.688Z,2.00
2023-05-01T15:26:07.072Z,2.25
2023-05-01T15:36:10.248Z,4.07
2023-05-01T15:46:13.581Z,2.13
2023-05-01T15:56:15.560Z,2.90
2023-05-01T16:06:18.938Z,4.32
2023-05-01T16:16:24.533Z,2.75
2023-05-01T16:26:29.685Z,2.58
2023-05-01T16:36:31.592Z,2.40
2023-05-01T16:46:35.100Z,4.55
2023-05-01T16:56:38.354Z,3.05
2023-05-01T17:06:41.893Z,2.75
2023-05-01T17:17:50.747Z,1.83
2023-05-01T17:27:54.194Z,2.50
2023-05-01T17:37:56.115Z,3.30
2023-05-01T17:47:59.511Z,4.32
2023-05-01T17:58:01.651Z,7.78
2023-05-01T18:08:05.188Z,6.45
2023-05-01T18:18:07.153Z,28.23
2023-05-01T18:28:12.720Z,4.35
2023-05-01T18:38:14.633Z,6.07
2023-05-01T18:48:17.936Z,16.70
2023-05-01T19:09:52.680Z,11.45
2023-05-01T19:19:54.647Z,5.88
2023-05-01T19:29:58.152Z,6.85
2023-05-01T19:40:00.326Z,6.80
2023-05-01T19:50:04.933Z,7.35
2023-05-01T20:00:08.347Z,5.45
2023-05-01T20:10:11.711Z,3.50
2023-05-01T20:20:13.695Z,4.97
2023-05-01T20:30:17.024Z,8.07
2023-05-01T20:40:19.053Z,4.40
2023-05-01T20:50:22.386Z,8.18
2023-05-01T21:00:24.378Z,8.02
2023-05-01T21:10:27.684Z,5.93
2023-05-01T21:20:31.733Z,5.07
2023-05-01T21:30:36.205Z,3.47
2023-05-01T21:40:41.626Z,3.33
2023-05-01T21:50:48.962Z,5.75
2023-05-01T22:00:51.217Z,2.95
2023-05-01T22:10:54.664Z,2.63
2023-05-01T22:20:56.618Z,2.20
2023-05-01T22:30:59.904Z,3.13
2023-05-01T22:41:01.822Z,2.53
2023-05-01T22:51:05.192Z,2.17
2023-05-01T23:01:07.213Z,4.18
2023-05-01T23:11:15.727Z,5.55
2023-05-01T23:21:18.454Z,2.63
2023-05-01T23:31:24.403Z,2.53
2023-05-01T23:41:26.398Z,3.75
2023-05-01T23:51:30.547Z,6.47
